Stoystown, Pennsylvania
Current Conditions -  °F | °C
As of 6:15 PM on Thursday 18 Dec 2014 (Local Time) from K2G9 Reporting Station
Overcast Overcast  
Wind Chill: 11°   Ceiling: 800
Heat Index: 23°   Visibility: 10mi
Dew Point: 19°   Wind: 13mph
Humidity: 86%   Direction: 300°WNW
Pressure: 30.06"   Gusts: NA
Location:  40.1°N, 78.95°W
Report Text: K2G9 182315Z AUTO 30011KT 10SM OVC008 M05/M07 A3006 RMK AO2
Loading
Personal Weather Stations






























Interactive Weather Map New forecast layout! Learn more

10-Day Weather Forecast

Advertisements
Track Severe Weather on mobile